Time;durP1;ratioP1;P1;durP2;ratioP2;P2;SDS_P1;SDS_P2;PMS_P1;PMS_P2;Temp;Humidity;BMP_temperature;BMP_pressure;BME280_temperature;BME280_humidity;BME280_pressure;Samples;Min_cycle;Max_cycle;Signal;HPM_P1;HPM_P2
2020/12/14 00:02:12;;;;;;;;;17.00;17.00;;;;;4.19;73.34;101374.00;4433989;32;13012;-74
2020/12/14 00:05:09;;;;;;;;;28.25;23.75;;;;;4.20;73.01;101370.16;4432827;32;12355;-74
2020/12/14 00:07:37;;;;;;;;;22.00;22.00;;;;;4.10;73.02;101379.19;4432704;32;12369;-74
2020/12/14 00:10:32;;;;;;;;;22.50;21.75;;;;;4.19;73.02;101380.31;4433077;32;13021;-74
2020/12/14 00:13:28;;;;;;;;;21.75;21.75;;;;;4.16;73.22;101363.63;4434225;32;12409;-74
2020/12/14 00:15:56;;;;;;;;;21.25;21.25;;;;;4.30;72.74;101370.22;4433921;32;12304;-74
2020/12/14 00:18:52;;;;;;;;;23.50;20.25;;;;;4.44;72.50;101376.75;4432257;32;12339;-74
2020/12/14 00:21:52;;;;;;;;;25.50;25.25;;;;;4.28;72.58;101377.84;4432585;32;12390;-73
2020/12/14 00:24:37;;;;;;;;;25.50;22.00;;;;;4.27;72.87;101367.19;4432029;32;12385;-74
2020/12/14 00:27:33;;;;;;;;;30.25;25.50;;;;;4.46;72.07;101360.09;4433634;32;12339;-74
2020/12/14 00:30:28;;;;;;;;;21.25;21.00;;;;;4.38;72.45;101358.72;4432513;32;12334;-73
2020/12/14 00:33:24;;;;;;;;;23.75;22.75;;;;;4.29;72.58;101354.84;4435413;32;12326;-73
2020/12/14 00:36:08;;;;;;;;;19.50;18.75;;;;;4.29;72.65;101356.75;4435564;32;12367;-74
2020/12/14 00:39:05;;;;;;;;;38.75;33.25;;;;;4.15;72.96;101346.38;4435153;32;12301;-73
2020/12/14 00:41:41;;;;;;;;;26.67;26.67;;;;;3.94;73.73;101346.59;4435126;32;12528;-72
2020/12/14 00:44:37;;;;;;;;;29.75;27.50;;;;;4.16;73.40;101338.97;4420095;32;12429;-73
2020/12/14 00:47:33;;;;;;;;;22.75;21.75;;;;;4.05;73.63;101335.37;4424784;32;12330;-73
2020/12/14 00:50:28;;;;;;;;;21.00;21.00;;;;;4.05;73.56;101327.16;4435579;32;12328;-73
2020/12/14 00:53:24;;;;;;;;;15.25;15.25;;;;;4.18;72.93;101309.41;4434613;32;12302;-74
2020/12/14 00:56:11;;;;;;;;;49.00;38.33;;;;;4.07;73.38;101313.22;4435253;32;12322;-74
2020/12/14 00:59:07;;;;;;;;;41.67;32.67;;;;;4.06;73.53;101315.13;4435081;32;12388;-73
2020/12/14 01:02:03;;;;;;;;;25.25;23.75;;;;;4.07;73.43;101327.75;4427970;32;12318;-74
2020/12/14 01:04:32;;;;;;;;;32.33;32.33;;;;;4.31;72.59;101335.44;4436997;32;12346;-74
2020/12/14 01:07:28;;;;;;;;;20.50;19.00;;;;;4.46;72.11;101343.66;4434569;32;12293;-73
2020/12/14 01:09:55;;;;;;;;;20.00;19.75;;;;;4.40;72.34;101347.47;4423331;32;12337;-73
2020/12/14 01:12:23;;;;;;;;;26.25;22.00;;;;;4.33;72.40;101336.78;4424303;32;12443;-73
2020/12/14 01:15:06;;;;;;;;;22.50;22.50;;;;;4.34;72.46;101345.81;4423610;32;12288;-73
2020/12/14 01:17:34;;;;;;;;;30.00;28.75;;;;;4.52;71.65;101341.72;4435277;32;12378;-73
2020/12/14 01:20:30;;;;;;;;;20.25;19.25;;;;;4.03;73.31;101334.84;4432567;32;12307;-73
2020/12/14 01:23:25;;;;;;;;;19.50;18.50;;;;;4.40;72.21;101342.00;4434793;32;12376;-74
2020/12/14 01:26:21;;;;;;;;;21.75;19.75;;;;;4.43;72.07;101338.69;4434720;32;13029;-74
2020/12/14 01:29:02;;;;;;;;;21.75;20.25;;;;;3.97;73.57;101310.47;4435668;32;12329;-74
2020/12/14 01:31:57;;;;;;;;;17.75;17.75;;;;;4.36;72.78;101311.56;4434791;32;12418;-73
2020/12/14 01:34:54;;;;;;;;;22.25;21.75;;;;;4.26;73.11;101308.03;4433311;32;12463;-74
2020/12/14 01:37:51;;;;;;;;;16.25;14.75;;;;;4.41;72.32;101303.38;4434133;32;12366;-73
2020/12/14 01:40:34;;;;;;;;;15.75;15.75;;;;;4.16;72.93;101301.47;4436203;32;12370;-74
2020/12/14 01:43:31;;;;;;;;;19.00;19.00;;;;;4.11;73.13;101304.19;4433863;32;12464;-74
2020/12/14 01:46:30;;;;;;;;;23.75;22.75;;;;;4.46;72.33;101316.25;4433806;32;12331;-74
2020/12/14 01:49:05;;;;;;;;;22.25;22.00;;;;;4.26;72.65;101313.50;4434286;32;12442;-74
2020/12/14 01:52:01;;;;;;;;;32.75;32.00;;;;;4.36;72.77;101322.53;4433740;32;12292;-73
2020/12/14 01:54:34;;;;;;;;;28.00;25.50;;;;;4.65;71.64;101330.19;4433359;32;12340;-73
2020/12/14 01:57:30;;;;;;;;;34.25;32.50;;;;;4.63;71.39;101335.97;4433770;32;12337;-73
2020/12/14 02:00:05;;;;;;;;;31.00;28.75;;;;;4.36;72.42;101328.00;4420838;32;12288;-73
2020/12/14 02:03:04;;;;;;;;;26.00;23.50;;;;;4.65;71.56;101338.41;4434512;32;12375;-74
2020/12/14 02:06:00;;;;;;;;;31.75;25.25;;;;;4.81;71.10;101341.97;4434169;32;13011;-74
2020/12/14 02:08:56;;;;;;;;;20.75;20.75;;;;;4.60;71.26;101344.75;4433511;32;12321;-73
2020/12/14 02:11:24;;;;;;;;;18.75;18.75;;;;;4.43;72.17;101345.00;4435946;32;12350;-74
2020/12/14 02:14:19;;;;;;;;;24.50;24.50;;;;;4.62;71.50;101355.41;4433093;32;12314;-74
2020/12/14 02:17:22;;;;;;;;;19.75;19.25;;;;;4.58;71.49;101363.34;4433344;32;13020;-74
2020/12/14 02:20:18;;;;;;;;;15.50;15.50;;;;;4.46;72.16;101368.31;4433655;32;12381;-74
2020/12/14 02:23:13;;;;;;;;;19.50;19.50;;;;;4.64;71.65;101372.41;4432379;32;12341;-73
2020/12/14 02:25:41;;;;;;;;;9.00;9.00;;;;;4.58;71.74;101381.72;4435546;32;12329;-74
2020/12/14 02:28:37;;;;;;;;;22.50;22.25;;;;;4.60;71.39;101396.78;4433768;32;12486;-73
2020/12/14 02:31:04;;;;;;;;;19.50;19.50;;;;;4.44;72.30;101397.84;4433646;32;12287;-73
2020/12/14 02:34:00;;;;;;;;;22.50;21.00;;;;;4.58;71.87;101396.22;4425972;32;12324;-74
2020/12/14 02:36:27;;;;;;;;;22.25;22.25;;;;;4.71;71.88;101390.22;4434087;32;12410;-74
2020/12/14 02:39:23;;;;;;;;;26.00;26.00;;;;;4.51;72.36;101389.37;4433395;32;12320;-74
2020/12/14 02:42:21;;;;;;;;;16.50;16.50;;;;;4.51;72.43;101379.25;4434041;32;12326;-74
2020/12/14 02:45:03;;;;;;;;;18.00;18.00;;;;;4.55;72.47;101385.81;4433902;32;12304;-74
2020/12/14 02:47:58;;;;;;;;;20.25;20.25;;;;;4.54;72.92;101386.09;4432081;32;12372;-74
2020/12/14 02:50:25;;;;;;;;;32.75;32.75;;;;;4.80;72.10;101389.66;4433204;32;12316;-74
2020/12/14 02:52:52;;;;;;;;;34.00;31.00;;;;;4.70;72.39;101394.03;4434034;32;12306;-74
2020/12/14 02:55:20;;;;;;;;;33.75;31.00;;;;;4.59;73.02;101400.59;4433380;32;12300;-74
2020/12/14 02:57:56;;;;;;;;;30.50;28.75;;;;;4.52;73.18;101389.09;4434314;32;12377;-74
2020/12/14 03:00:23;;;;;;;;;27.25;23.00;;;;;4.64;73.07;101389.66;4432735;32;12327;-74
2020/12/14 03:03:18;;;;;;;;;20.25;19.75;;;;;4.38;73.95;101385.28;4432256;32;12301;-74
2020/12/14 03:05:47;;;;;;;;;27.50;27.50;;;;;4.38;73.96;101382.53;4435191;32;12267;-72
2020/12/14 03:08:17;;;;;;;;;32.75;30.00;;;;;4.54;73.66;101375.16;4434151;32;12394;-73
2020/12/14 03:10:45;;;;;;;;;29.25;27.75;;;;;4.42;73.83;101373.47;4434906;32;12291;-73
2020/12/14 03:13:40;;;;;;;;;20.50;20.50;;;;;4.34;74.15;101374.03;4431718;32;12378;-72
2020/12/14 03:16:41;;;;;;;;;40.75;37.00;;;;;4.31;74.46;101366.38;4428511;32;12427;-72
2020/12/14 03:19:36;;;;;;;;;45.33;39.33;;;;;4.38;74.36;101360.62;4431647;32;12322;-72
2020/12/14 03:22:32;;;;;;;;;48.75;43.00;;;;;4.45;74.29;101358.44;4431451;32;12373;-73
2020/12/14 03:25:27;;;;;;;;;33.25;32.50;;;;;4.26;74.68;101357.31;4433605;32;12469;-72
2020/12/14 03:27:54;;;;;;;;;40.75;36.75;;;;;4.19;74.88;101355.66;4433521;32;12984;-72
2020/12/14 03:30:51;;;;;;;;;41.25;36.00;;;;;4.25;74.97;101359.25;4427516;32;12399;-72
2020/12/14 03:33:47;;;;;;;;;52.67;48.67;;;;;4.24;74.85;101351.31;4432542;32;12307;-73
2020/12/14 03:36:43;;;;;;;;;52.33;47.33;;;;;4.25;74.68;101353.75;4432232;32;8895;-73
2020/12/14 03:39:39;;;;;;;;;63.33;53.33;;;;;4.26;74.73;101343.62;4433578;32;8963;-73
2020/12/14 03:42:13;;;;;;;;;59.67;47.33;;;;;4.24;75.02;101343.09;4434130;32;8898;-73
2020/12/14 03:45:09;;;;;;;;;52.67;44.33;;;;;4.16;75.07;101356.22;4433082;32;8937;-73
2020/12/14 03:48:04;;;;;;;;;52.00;46.00;;;;;4.23;75.20;101352.41;4432650;32;8985;-72
2020/12/14 03:51:00;;;;;;;;;65.33;52.67;;;;;4.45;74.61;101355.69;4433125;32;8937;-72
2020/12/14 03:53:58;;;;;;;;;58.67;51.00;;;;;4.59;74.00;101362.25;4432844;32;9595;-73
2020/12/14 03:56:57;;;;;;;;;43.67;42.33;;;;;4.77;73.49;101363.63;4431741;32;9006;-73
2020/12/14 03:59:53;;;;;;;;;31.25;29.75;;;;;4.62;73.69;101352.69;4432173;32;8895;-72
2020/12/14 04:02:20;;;;;;;;;32.25;27.25;;;;;4.50;74.07;101346.66;4432787;32;12385;-73
2020/12/14 04:04:48;;;;;;;;;32.50;31.00;;;;;4.37;74.42;101335.16;4434056;32;12397;-73
2020/12/14 04:07:16;;;;;;;;;30.25;27.00;;;;;4.41;74.57;101327.19;4433377;32;12320;-73
2020/12/14 04:09:49;;;;;;;;;19.00;18.75;;;;;4.47;74.36;101321.44;4437293;32;12424;-73
2020/12/14 04:12:32;;;;;;;;;22.00;19.00;;;;;4.27;74.91;101328.84;4436119;32;12328;-73
2020/12/14 04:15:00;;;;;;;;;41.75;36.00;;;;;4.41;74.63;101330.75;4435445;32;12381;-73
2020/12/14 04:17:56;;;;;;;;;62.33;53.00;;;;;4.51;74.31;101340.88;4421532;32;12393;-73
2020/12/14 04:20:51;;;;;;;;;31.50;31.50;;;;;4.53;73.87;101349.69;4423791;32;8880;-73
2020/12/14 04:23:19;;;;;;;;;55.67;46.33;;;;;4.66;73.66;101351.03;4431771;32;13004;-73
2020/12/14 04:26:15;;;;;;;;;50.00;43.67;;;;;4.53;74.21;101360.62;4435868;32;12964;-73
2020/12/14 04:29:10;;;;;;;;;34.75;30.25;;;;;4.29;74.46;101354.84;4434877;32;12616;-73
2020/12/14 04:32:06;;;;;;;;;28.00;26.00;;;;;4.31;74.51;101360.91;4434906;32;12419;-73
2020/12/14 04:34:34;;;;;;;;;31.50;30.25;;;;;4.67;73.59;101367.19;4436486;32;12331;-71
2020/12/14 04:37:02;;;;;;;;;9.00;9.00;;;;;4.83;73.11;101370.75;4418854;32;12375;-73
2020/12/14 04:39:29;;;;;;;;;23.75;23.75;;;;;4.91;72.13;101374.84;4435323;32;12344;-72
2020/12/14 04:41:58;;;;;;;;;41.00;37.75;;;;;4.78;72.88;101373.50;4436440;32;12411;-73
2020/12/14 04:44:27;;;;;;;;;28.25;27.00;;;;;4.71;73.37;101364.72;4436188;32;12322;-73
2020/12/14 04:47:23;;;;;;;;;22.00;22.00;;;;;4.72;72.84;101369.09;4434630;32;12462;-73
2020/12/14 04:49:51;;;;;;;;;20.75;20.25;;;;;4.60;73.06;101363.91;4428467;32;12303;-73
2020/12/14 04:52:48;;;;;;;;;26.50;22.75;;;;;4.63;72.80;101360.62;4433260;32;12463;-74
2020/12/14 04:55:33;;;;;;;;;30.00;27.75;;;;;4.41;73.47;101362.81;4436518;32;12307;-72
2020/12/14 04:58:29;;;;;;;;;22.50;22.50;;;;;4.49;73.50;101358.69;4434140;32;12310;-73
2020/12/14 05:01:25;;;;;;;;;21.75;21.75;;;;;4.60;73.06;101363.91;4431485;32;12316;-72
2020/12/14 05:04:20;;;;;;;;;15.75;15.75;;;;;4.29;73.72;101362.25;4435391;32;12335;-74
2020/12/14 05:06:51;;;;;;;;;29.50;28.25;;;;;4.43;73.42;101357.88;4432809;32;12361;-74
2020/12/14 05:10:00;;;;;;;;;24.00;24.00;;;;;4.62;72.81;101360.91;4436134;32;12436;-73
2020/12/14 05:12:28;;;;;;;;;25.25;22.00;;;;;4.86;72.15;101366.63;4435647;32;12329;-73
2020/12/14 05:14:59;;;;;;;;;36.50;34.50;;;;;4.81;72.06;101366.63;4436489;32;12349;-73
2020/12/14 05:18:16;;;;;;;;;33.00;32.50;;;;;4.65;72.78;101365.81;4434004;32;12397;-73
2020/12/14 05:21:00;;;;;;;;;30.50;28.75;;;;;4.85;72.06;101378.69;4435258;32;12331;-75
2020/12/14 05:23:29;;;;;;;;;24.00;24.00;;;;;4.78;71.89;101375.41;4434739;32;12366;-75
2020/12/14 05:26:08;;;;;;;;;26.75;26.00;;;;;4.75;72.08;101374.03;4436282;32;13054;-76
2020/12/14 05:29:03;;;;;;;;;19.75;19.75;;;;;4.85;71.64;101381.44;4433586;32;12530;-76
2020/12/14 05:31:30;;;;;;;;;30.00;30.00;;;;;4.65;72.29;101391.28;4434360;32;12323;-76
2020/12/14 05:34:12;;;;;;;;;25.50;23.00;;;;;4.69;72.21;101389.66;4436427;32;13043;-76
2020/12/14 05:36:40;;;;;;;;;44.25;41.75;;;;;4.77;71.86;101387.47;4434463;32;12387;-76
2020/12/14 05:39:24;;;;;;;;;30.25;29.25;;;;;4.72;72.16;101399.25;4436076;32;12394;-75
2020/12/14 05:41:52;;;;;;;;;29.25;27.75;;;;;4.72;72.48;101393.75;4434017;32;12371;-75
2020/12/14 05:44:26;;;;;;;;;23.75;22.50;;;;;4.67;71.96;101396.50;4435741;32;12339;-76
2020/12/14 05:46:54;;;;;;;;;24.25;22.75;;;;;4.52;72.95;101391.84;4434949;32;12325;-75
2020/12/14 05:49:44;;;;;;;;;32.00;29.25;;;;;4.49;72.88;101397.06;4423220;32;12381;-75
2020/12/14 05:52:51;;;;;;;;;26.50;24.50;;;;;4.70;72.42;101407.75;4434280;32;12344;-75
2020/12/14 05:55:48;;;;;;;;;28.25;27.50;;;;;4.87;71.76;101409.38;4434773;32;12394;-76
2020/12/14 05:58:44;;;;;;;;;36.25;30.75;;;;;4.78;71.59;101427.47;4434762;32;12341;-75
2020/12/14 06:01:43;;;;;;;;;25.25;25.25;;;;;4.73;71.98;101431.03;4434388;32;12390;-75
2020/12/14 06:04:25;;;;;;;;;32.25;31.75;;;;;4.76;71.50;101429.69;4434215;32;12424;-76
2020/12/14 06:06:59;;;;;;;;;30.25;29.00;;;;;4.91;71.39;101441.47;4435181;32;12336;-75
2020/12/14 06:09:37;;;;;;;;;30.50;30.25;;;;;4.90;71.46;101439.78;4433851;32;12425;-76
2020/12/14 06:12:10;;;;;;;;;26.75;26.25;;;;;4.81;71.86;101440.63;4433521;32;12359;-75
2020/12/14 06:14:51;;;;;;;;;27.75;26.75;;;;;4.42;72.71;101450.19;4434578;32;12333;-75
2020/12/14 06:17:34;;;;;;;;;32.25;32.25;;;;;4.58;72.55;101456.50;4433750;32;12333;-75
2020/12/14 06:20:07;;;;;;;;;30.50;30.50;;;;;4.61;72.57;101464.19;4435339;32;12356;-75
2020/12/14 06:23:07;;;;;;;;;27.50;21.25;;;;;4.78;72.14;101463.94;4434753;32;12526;-75
2020/12/14 06:25:50;;;;;;;;;29.25;29.25;;;;;4.60;72.30;101464.44;4435026;32;12345;-75
2020/12/14 06:28:34;;;;;;;;;30.75;29.75;;;;;4.72;71.89;101468.56;4434468;32;12391;-76
2020/12/14 06:31:02;;;;;;;;;27.75;25.25;;;;;4.66;72.17;101469.66;4435819;32;12373;-75
2020/12/14 06:33:44;;;;;;;;;26.75;26.00;;;;;4.81;72.20;101470.78;4433197;32;12334;-76
2020/12/14 06:36:27;;;;;;;;;26.75;25.50;;;;;4.85;71.82;101453.53;4434099;32;12377;-76
2020/12/14 06:38:58;;;;;;;;;35.25;35.25;;;;;4.73;72.28;101459.25;4433450;32;12439;-76
2020/12/14 06:41:31;;;;;;;;;33.25;32.75;;;;;4.71;72.39;101464.19;4434054;32;12322;-76
2020/12/14 06:44:04;;;;;;;;;29.00;29.00;;;;;4.87;71.52;101469.69;4433402;32;12399;-76
2020/12/14 06:46:40;;;;;;;;;30.50;26.50;;;;;4.94;71.59;101470.22;4435433;32;12384;-76
2020/12/14 06:49:10;;;;;;;;;46.00;38.25;;;;;5.04;71.90;101456.50;4433144;32;12327;-75
2020/12/14 06:51:54;;;;;;;;;49.00;43.25;;;;;5.07;71.73;101464.22;4434927;32;12383;-75
2020/12/14 06:54:45;;;;;;;;;36.75;36.75;;;;;5.04;71.89;101459.25;4433619;32;12397;-75
2020/12/14 06:57:17;;;;;;;;;43.25;41.25;;;;;4.67;72.93;101445.81;3969139;32;15154055;-76
2020/12/14 06:59:51;;;;;;;;;31.25;30.25;;;;;4.68;73.31;101456.53;4433363;32;8903;-76
2020/12/14 07:02:36;;;;;;;;;38.75;37.00;;;;;4.70;72.72;101448.84;4432032;32;12341;-75
2020/12/14 07:05:28;;;;;;;;;31.75;31.75;;;;;5.01;72.28;101457.06;4434494;32;12387;-75
2020/12/14 07:07:58;;;;;;;;;30.50;28.25;;;;;4.70;73.03;101451.59;4424441;32;12432;-75
2020/12/14 07:10:30;;;;;;;;;32.50;30.25;;;;;4.65;73.58;101456.25;4433027;32;12408;-74
2020/12/14 07:12:59;;;;;;;;;41.50;40.50;;;;;4.89;72.93;101464.75;4432137;32;12295;-73
2020/12/14 07:15:37;;;;;;;;;35.50;33.25;;;;;5.01;72.99;101451.59;4424729;32;12459;-72
2020/12/14 07:18:07;;;;;;;;;36.00;34.75;;;;;4.90;73.08;101458.16;4433390;32;12328;-73
2020/12/14 07:21:03;;;;;;;;;26.75;26.75;;;;;4.91;72.85;101462.56;4433564;32;12374;-73
2020/12/14 07:23:38;;;;;;;;;31.00;30.75;;;;;4.85;73.43;101460.91;4433081;32;12299;-72
2020/12/14 07:26:11;;;;;;;;;32.75;32.00;;;;;4.91;73.59;101470.78;4432193;32;12315;-73
2020/12/14 07:29:11;;;;;;;;;33.50;32.50;;;;;5.01;73.24;101470.78;4432272;32;13079;-73
2020/12/14 07:31:53;;;;;;;;;33.00;32.50;;;;;4.89;73.30;101462.81;4434353;32;12372;-73
2020/12/14 07:34:52;;;;;;;;;30.25;29.00;;;;;4.75;73.80;101461.72;4432738;32;12325;-72
2020/12/14 07:37:48;;;;;;;;;35.75;31.25;;;;;4.76;74.14;101459.81;4433965;32;12392;-73
2020/12/14 07:40:16;;;;;;;;;25.25;23.00;;;;;5.17;73.03;101468.84;4433745;32;12375;-73
2020/12/14 07:43:18;;;;;;;;;26.25;26.25;;;;;5.11;72.76;101458.97;4435671;32;12401;-73
2020/12/14 07:46:00;;;;;;;;;27.25;26.50;;;;;5.12;72.73;101466.09;4435398;32;12309;-73
2020/12/14 07:48:58;;;;;;;;;37.75;33.75;;;;;5.05;73.21;101473.78;4436348;32;12342;-75
2020/12/14 07:51:28;;;;;;;;;29.25;28.25;;;;;5.30;72.34;101468.31;4435581;32;12342;-73
2020/12/14 07:54:10;;;;;;;;;31.75;30.25;;;;;5.13;72.75;101481.47;4437785;32;12325;-72
2020/12/14 07:57:01;;;;;;;;;31.25;31.25;;;;;5.33;72.47;101481.44;4436151;32;12374;-72
2020/12/14 07:59:32;;;;;;;;;40.00;33.75;;;;;5.40;72.39;101478.44;4432572;32;13054;-74
2020/12/14 08:02:01;;;;;;;;;34.50;30.00;;;;;5.55;71.84;101483.88;4427646;32;12457;-74
2020/12/14 08:04:39;;;;;;;;;31.00;30.75;;;;;5.40;72.57;101479.25;4420624;32;12417;-74
2020/12/14 08:07:16;;;;;;;;;32.50;30.75;;;;;5.59;71.71;101484.97;4434174;32;12412;-74
2020/12/14 08:09:52;;;;;;;;;31.25;27.50;;;;;5.45;71.84;101476.50;4435761;32;12299;-73
2020/12/14 08:12:19;;;;;;;;;31.50;29.75;;;;;5.39;72.47;101479.53;4435267;32;12319;-74
2020/12/14 08:14:47;;;;;;;;;27.50;26.75;;;;;5.59;71.77;101473.97;4436178;32;12335;-73
2020/12/14 08:17:14;;;;;;;;;24.50;24.50;;;;;5.66;71.64;101480.00;4430621;32;12317;-73
2020/12/14 08:19:50;;;;;;;;;25.25;25.25;;;;;5.64;71.28;101484.13;4428939;32;12348;-72
2020/12/14 08:22:20;;;;;;;;;27.75;26.25;;;;;5.80;71.43;101477.50;4435268;32;12319;-74
2020/12/14 08:24:55;;;;;;;;;23.75;23.00;;;;;5.93;70.96;101476.12;4435404;32;12333;-74
2020/12/14 08:27:35;;;;;;;;;20.75;20.75;;;;;5.94;71.05;101477.75;4436322;32;12294;-72
2020/12/14 08:30:09;;;;;;;;;27.75;25.00;;;;;5.78;71.00;101485.19;4435646;32;12313;-73
2020/12/14 08:32:40;;;;;;;;;22.50;21.75;;;;;5.98;70.39;101478.81;4436234;32;12394;-73
2020/12/14 08:35:24;;;;;;;;;25.00;25.00;;;;;6.03;70.48;101481.56;4435899;32;12402;-73
2020/12/14 08:38:01;;;;;;;;;21.00;20.75;;;;;5.90;70.76;101482.94;4433678;32;12324;-74
2020/12/14 08:40:37;;;;;;;;;13.75;13.75;;;;;5.80;70.56;101475.56;4433597;32;12320;-75
2020/12/14 08:43:12;;;;;;;;;23.25;23.25;;;;;5.75;70.54;101464.63;4435955;32;12326;-73
2020/12/14 08:46:14;;;;;;;;;23.75;23.50;;;;;6.02;70.27;101460.69;4436448;32;12330;-73
2020/12/14 08:49:10;;;;;;;;;21.25;20.75;;;;;6.25;69.93;101462.78;4435295;32;13005;-74
2020/12/14 08:51:38;;;;;;;;;23.50;23.50;;;;;6.04;69.94;101456.56;4427019;32;12434;-74
2020/12/14 08:54:17;;;;;;;;;21.75;21.00;;;;;6.33;69.21;101453.94;4423896;32;12330;-73
2020/12/14 08:56:46;;;;;;;;;18.75;18.75;;;;;6.36;68.57;101450.63;4420937;32;12344;-74
2020/12/14 08:59:19;;;;;;;;;31.50;28.50;;;;;6.34;69.25;101447.34;4423110;32;12578;-72
2020/12/14 09:02:04;;;;;;;;;22.00;20.25;;;;;6.43;68.99;101435.75;4426231;32;12348;-74
2020/12/14 09:05:16;;;;;;;;;23.50;23.50;;;;;6.36;69.27;101445.16;4426201;32;12423;-74
2020/12/14 09:07:43;;;;;;;;;23.75;22.00;;;;;5.92;69.51;101447.03;4426985;32;12335;-73
2020/12/14 09:10:26;;;;;;;;;20.25;20.25;;;;;6.10;69.67;101455.44;4422840;32;12417;-74
2020/12/14 09:13:05;;;;;;;;;28.00;26.25;;;;;6.03;69.54;101435.69;4426014;32;12326;-75
2020/12/14 09:16:01;;;;;;;;;22.00;22.00;;;;;6.27;69.15;101432.28;4423168;32;12369;-75
2020/12/14 09:18:57;;;;;;;;;24.75;24.75;;;;;6.12;69.49;101439.50;4424720;32;12319;-76
2020/12/14 09:21:26;;;;;;;;;45.25;42.75;;;;;6.15;69.08;101442.78;4430538;32;12339;-75
2020/12/14 09:24:17;;;;;;;;;35.50;34.75;;;;;5.80;70.10;101433.56;4428268;32;12397;-74
2020/12/14 09:27:14;;;;;;;;;18.25;18.25;;;;;5.98;69.95;101432.16;4420990;32;12345;-75
2020/12/14 09:29:45;;;;;;;;;26.75;23.00;;;;;5.97;69.05;101433.25;4424083;32;12340;-75
2020/12/14 09:32:17;;;;;;;;;24.00;24.00;;;;;5.70;69.90;101422.66;4423035;32;12330;-74
2020/12/14 09:34:45;;;;;;;;;31.75;28.50;;;;;5.63;70.52;101431.19;4418154;32;12390;-74
2020/12/14 09:37:16;;;;;;;;;38.50;35.75;;;;;5.90;69.94;101428.03;4421824;32;13044;-74
2020/12/14 09:39:45;;;;;;;;;37.75;32.50;;;;;5.76;70.24;101421.53;4423044;32;12336;-75
2020/12/14 09:42:12;;;;;;;;;38.00;38.00;;;;;5.73;70.51;101433.87;4426562;32;12472;-76
2020/12/14 09:44:40;;;;;;;;;28.00;25.00;;;;;5.77;70.49;101420.41;4429299;32;13272;-76
2020/12/14 09:47:09;;;;;;;;;31.00;30.50;;;;;5.67;70.24;101424.00;4423187;32;12422;-77
2020/12/14 09:50:05;;;;;;;;;35.00;34.75;;;;;5.87;70.02;101415.69;4424601;32;12351;-77
2020/12/14 09:52:47;;;;;;;;;34.00;34.00;;;;;5.79;70.16;101402.56;4432353;32;12411;-76
2020/12/14 09:55:16;;;;;;;;;35.75;32.00;;;;;5.77;70.47;101407.53;4429711;32;13072;-76
2020/12/14 09:58:07;;;;;;;;;28.00;28.00;;;;;5.66;70.60;101405.91;4433593;32;12372;-81
2020/12/14 10:00:54;;;;;;;;;31.25;31.25;;;;;5.53;70.66;101403.78;4432074;32;12424;-82
2020/12/14 10:03:53;;;;;;;;;31.75;30.50;;;;;5.38;71.41;101412.06;4433461;32;12989;-81
2020/12/14 10:06:22;;;;;;;;;31.25;30.00;;;;;5.53;71.39;101420.25;4422655;32;12329;-80
2020/12/14 10:08:51;;;;;;;;;23.25;23.25;;;;;5.92;69.96;101420.37;4426931;32;12407;-83
2020/12/14 10:11:27;;;;;;;;;24.50;23.00;;;;;6.01;69.42;101429.69;4433563;32;12357;-82
2020/12/14 10:14:22;;;;;;;;;26.75;26.75;;;;;5.86;69.76;101419.56;4429220;32;12552;-80
2020/12/14 10:16:50;;;;;;;;;22.25;19.25;;;;;5.56;70.93;101415.00;4418751;32;12402;-80
2020/12/14 10:19:47;;;;;;;;;29.50;28.00;;;;;5.55;70.82;101407.88;4429172;32;12423;-81
2020/12/14 10:22:37;;;;;;;;;30.75;29.00;;;;;5.51;71.31;101409.50;4428878;32;12322;-81
2020/12/14 10:25:09;;;;;;;;;31.00;30.75;;;;;5.88;70.20;101400.03;4431882;32;12372;-82
2020/12/14 10:27:38;;;;;;;;;43.25;39.75;;;;;5.63;70.90;101406.47;4426563;32;12345;-81
2020/12/14 10:30:35;;;;;;;;;31.50;30.50;;;;;5.89;70.41;101409.09;4432155;32;12387;-82
2020/12/14 10:33:31;;;;;;;;;25.25;23.25;;;;;6.14;69.68;101409.00;4432611;32;12413;-81
2020/12/14 10:36:10;;;;;;;;;62.00;48.50;;;;;6.21;69.56;101409.53;4433958;32;12377;-80
2020/12/14 10:38:39;;;;;;;;;30.00;27.50;;;;;6.11;69.49;101412.31;4429352;32;13090;-81
2020/12/14 10:41:34;;;;;;;;;32.75;32.00;;;;;5.99;69.95;101407.19;4429429;32;12401;-82
2020/12/14 10:44:30;;;;;;;;;29.75;29.25;;;;;6.27;68.93;101405.63;4432632;32;12367;-81
2020/12/14 10:47:26;;;;;;;;;48.00;44.25;;;;;6.32;68.44;101405.59;4428799;32;12313;-82
2020/12/14 10:50:10;;;;;;;;;34.00;32.00;;;;;5.91;69.73;101399.53;4432169;32;12337;-81
2020/12/14 10:52:38;;;;;;;;;29.25;26.25;;;;;6.29;68.81;101391.62;4432182;32;12362;-81
2020/12/14 10:55:33;;;;;;;;;41.75;39.75;;;;;6.01;69.37;101399.47;4424352;32;12324;-80
2020/12/14 10:58:29;;;;;;;;;59.25;48.50;;;;;6.32;68.72;101388.28;4429031;32;12355;-82
2020/12/14 11:01:05;;;;;;;;;33.25;32.50;;;;;5.94;69.80;101398.12;4432971;32;12338;-82
2020/12/14 11:04:00;;;;;;;;;44.50;43.25;;;;;5.63;70.45;101386.44;4422504;32;12546;-81
2020/12/14 11:06:32;;;;;;;;;42.50;40.00;;;;;5.75;70.64;101393.25;4424580;32;12349;-81
2020/12/14 11:09:28;;;;;;;;;56.00;45.50;;;;;6.10;69.47;101392.25;4426192;32;12394;-82
2020/12/14 11:12:24;;;;;;;;;43.50;40.50;;;;;6.12;69.49;101395.53;4427665;32;12461;-81
2020/12/14 11:15:07;;;;;;;;;28.25;24.50;;;;;6.02;69.57;101400.28;4431181;32;12343;-80
2020/12/14 11:17:35;;;;;;;;;53.50;46.25;;;;;5.94;69.91;101401.69;4419452;32;12356;-81
2020/12/14 11:20:31;;;;;;;;;65.00;55.33;;;;;5.74;70.39;101408.06;4425061;32;12379;-83
2020/12/14 11:23:26;;;;;;;;;52.00;43.75;;;;;6.04;69.89;101423.59;4422776;32;12340;-81
2020/12/14 11:26:22;;;;;;;;;55.00;46.25;;;;;6.08;69.61;101426.63;4426602;32;13094;-80
2020/12/14 11:28:49;;;;;;;;;1.50;0.50;;;;;5.74;70.48;101424.53;4430793;32;12413;-80
2020/12/14 11:31:19;;;;;;;;;37.50;37.50;;;;;6.10;69.75;101435.38;4430968;32;12362;-81
2020/12/14 11:34:09;;;;;;;;;51.25;44.75;;;;;6.38;69.05;101426.44;4428805;32;12447;-81
2020/12/14 11:36:37;;;;;;;;;62.00;49.25;;;;;6.21;69.41;101428.75;4429288;32;12412;-81
2020/12/14 11:39:33;;;;;;;;;66.00;49.50;;;;;6.21;69.46;101425.16;4420875;32;12314;-80
2020/12/14 11:42:02;;;;;;;;;69.25;56.25;;;;;6.16;69.82;101419.72;4417344;32;12357;-80
2020/12/14 11:44:30;;;;;;;;;33.00;24.00;;;;;6.09;69.63;101428.25;4418732;32;12383;-78
2020/12/14 11:47:28;;;;;;;;;64.00;49.50;;;;;6.05;69.92;101422.50;4426157;32;12280;-82
2020/12/14 11:49:55;;;;;;;;;58.25;49.25;;;;;5.93;70.19;101421.22;4424412;32;13052;-74
2020/12/14 11:52:51;;;;;;;;;68.00;52.67;;;;;5.79;70.75;101407.22;4431112;32;12332;-76
2020/12/14 11:55:46;;;;;;;;;53.75;48.00;;;;;5.84;70.77;101410.78;4427698;32;12336;-76
2020/12/14 11:58:14;;;;;;;;;62.50;52.25;;;;;5.64;71.26;101408.12;4424268;32;12389;-76
2020/12/14 12:00:55;;;;;;;;;45.25;41.75;;;;;6.02;70.47;101417.59;4428413;32;12315;-76
2020/12/14 12:03:40;;;;;;;;;57.50;49.50;;;;;6.01;70.32;101417.88;4426574;32;12331;-76
2020/12/14 12:06:36;;;;;;;;;55.67;46.33;;;;;5.81;70.77;101411.31;4431466;32;12335;-76
2020/12/14 12:09:21;;;;;;;;;85.33;68.00;;;;;5.73;71.40;101416.59;4420319;32;12428;-75
2020/12/14 12:11:51;;;;;;;;;45.67;35.67;;;;;5.51;72.11;101408.69;4417702;32;8886;-77
2020/12/14 12:14:46;;;;;;;;;61.33;49.33;;;;;5.61;72.07;101416.91;4430626;32;8988;-75
2020/12/14 12:17:20;;;;;;;;;37.75;36.25;;;;;5.45;72.60;101416.16;4426379;32;9551;-73
2020/12/14 12:20:15;;;;;;;;;40.25;38.75;;;;;5.56;71.99;101417.75;4426932;32;12334;-73
2020/12/14 12:22:43;;;;;;;;;46.50;36.50;;;;;5.27;73.01;101419.47;4421266;32;12357;-73
2020/12/14 12:25:28;;;;;;;;;45.25;41.25;;;;;5.34;72.72;101421.91;4422998;32;12324;-74
2020/12/14 12:27:57;;;;;;;;;28.00;24.75;;;;;5.69;71.56;101438.28;4432431;32;12428;-74
2020/12/14 12:30:26;;;;;;;;;35.00;31.50;;;;;5.46;72.53;101441.66;4434116;32;12360;-73